Aviation Digital Data Service (ADDS)

Output produced by METARs form (1612 UTC 03 December 2021)
found at http://www.aviationweather.gov/metar/data/
 
VTCT 031600Z 00000KT CAVOK 16/16 Q1020 NOSIG
VTCT 031500Z 26002KT CAVOK 16/16 Q1020 NOSIG
VTCT 031400Z 20002KT CAVOK 17/16 Q1019 NOSIG
VTCT 031300Z 30001KT CAVOK 18/16 Q1019 NOSIG
VTCT 031200Z 01003KT CAVOK 18/15 Q1018 NOSIG
VTCT 031100Z 03003KT CAVOK 20/16 Q1017 NOSIG
VTCT 031000Z 02006KT 9999 FEW025 24/14 Q1017 NOSIG
VTCT 030900Z 36004KT 300V050 9999 FEW025 25/14 Q1017 NOSIG
VTCT 030800Z 01005KT 330V050 9999 FEW025 25/13 Q1017 NOSIG
VTCT 030700Z 05009KT 010V070 9999 FEW025 25/14 Q1018 NOSIG
VTCT 030600Z 04005KT 360V090 9999 FEW025 25/13 Q1019 NOSIG
VTCT 030500Z 02007KT 350V070 CAVOK 23/15 Q1020 NOSIG
VTCT 030400Z 01007KT 330V050 CAVOK 22/15 Q1022 NOSIG
VTCT 030300Z 04008KT CAVOK 21/16 Q1022 NOSIG
VTCT 030200Z VRB02KT CAVOK 18/16 Q1022 NOSIG
VTCT 030100Z 00000KT 9999 FEW025 15/15 Q1021 NOSIG
VTCT 030000Z 02003KT 8000 FEW025 14/14 Q1020 NOSIG
VTCT 022300Z 30002KT 8000 NSC 14/14 Q1020 NOSIG
VTCT 022200Z VRB02KT 8000 NSC 14/14 Q1020 NOSIG
VTCT 022100Z 29001KT 8000 NSC 15/15 Q1019 NOSIG
VTCT 022000Z 00000KT 8000 FEW045 15/15 Q1019 NOSIG
VTCT 021900Z 28002KT 7000 FEW045 15/15 Q1019 NOSIG
VTCT 021800Z 00000KT 6000 NSC 15/15 Q1020 NOSIG
VTCT 021700Z 00000KT 6000 NSC 15/15 Q1020 NOSIG
VTCT 021600Z 00000KT 6000 NSC 16/16 Q1020 NOSIG
TAF VTCT 031100Z 0312/0418 03008KT 9999 FEW035